createdAt,value
2022-09-13T00:00:35.564Z,100494.53
2022-09-13T00:03:02.402Z,100499.03
2022-09-13T00:05:29.469Z,100503.53
2022-09-13T00:07:56.652Z,100492.78
2022-09-13T00:10:24.200Z,100486.59
2022-09-13T00:12:51.368Z,100481.22
2022-09-13T00:15:18.313Z,100487.50
2022-09-13T00:17:45.013Z,100477.72
2022-09-13T00:20:11.709Z,100471.47
2022-09-13T00:22:38.448Z,100482.13
2022-09-13T00:25:06.483Z,100478.59
2022-09-13T00:27:34.044Z,100487.50
2022-09-13T00:30:00.757Z,100481.31
2022-09-13T00:32:28.275Z,100487.50
2022-09-13T00:34:54.988Z,100481.22
2022-09-13T00:37:21.683Z,100482.13
2022-09-13T00:39:49.891Z,100472.28
2022-09-13T00:42:16.748Z,100475.03
2022-09-13T00:44:59.337Z,100463.44
2022-09-13T00:47:39.622Z,100458.97
2022-09-13T00:50:19.822Z,100460.88
2022-09-13T00:52:53.097Z,100454.63
2022-09-13T00:55:24.528Z,100434.06
2022-09-13T00:57:52.168Z,100440.31
2022-09-13T01:00:20.052Z,100440.41
2022-09-13T01:02:51.000Z,100431.63
2022-09-13T01:05:21.113Z,100422.75
2022-09-13T01:07:48.008Z,100433.56
2022-09-13T01:10:14.912Z,100436.31
2022-09-13T01:12:48.393Z,100425.69
2022-09-13T01:15:15.086Z,100432.00
2022-09-13T01:17:43.374Z,100417.81
2022-09-13T01:20:11.357Z,100415.19
2022-09-13T01:22:50.789Z,100406.28
2022-09-13T01:25:42.237Z,100402.72
2022-09-13T01:28:18.546Z,100397.47
2022-09-13T01:31:02.675Z,100388.53
2022-09-13T01:33:59.313Z,100387.53
2022-09-13T01:36:42.783Z,100376.81
2022-09-13T01:39:15.128Z,100378.56
2022-09-13T01:42:03.561Z,100374.91
2022-09-13T01:44:52.254Z,100373.97
2022-09-13T01:47:31.831Z,100377.50
2022-09-13T01:50:36.199Z,100384.59
2022-09-13T01:53:15.059Z,100364.84
2022-09-13T01:55:47.160Z,100365.72
2022-09-13T01:58:24.261Z,100363.00
2022-09-13T02:01:09.108Z,100373.75
2022-09-13T02:03:48.033Z,100364.75
2022-09-13T02:06:18.799Z,100369.16
2022-09-13T02:08:48.840Z,100364.66
2022-09-13T02:11:17.721Z,100369.06
2022-09-13T02:13:51.982Z,100366.38
2022-09-13T02:16:24.604Z,100357.28
2022-09-13T02:18:54.799Z,100349.19
2022-09-13T02:21:28.068Z,100356.22
2022-09-13T02:24:05.164Z,100358.84
2022-09-13T02:26:34.137Z,100361.47
2022-09-13T02:29:07.716Z,100376.59
2022-09-13T02:31:37.680Z,100370.19
2022-09-13T02:34:10.533Z,100365.69
2022-09-13T02:36:40.586Z,100365.59
2022-09-13T02:39:12.347Z,100376.34
2022-09-13T02:41:52.768Z,100378.06
2022-09-13T02:44:31.882Z,100383.44
2022-09-13T02:47:12.160Z,100379.81
2022-09-13T02:49:45.831Z,100382.50
2022-09-13T02:52:21.711Z,100404.91
2022-09-13T02:55:01.285Z,100399.81
2022-09-13T02:57:57.161Z,100397.44
2022-09-13T03:00:23.872Z,100398.69
2022-09-13T03:02:51.994Z,100408.84
2022-09-13T03:05:18.710Z,100404.59
2022-09-13T03:07:45.456Z,100395.03
2022-09-13T03:10:13.725Z,100395.28
2022-09-13T03:12:52.755Z,100400.78
2022-09-13T03:15:38.284Z,100405.47
2022-09-13T03:18:29.967Z,100391.34
2022-09-13T03:21:15.313Z,100381.66
2022-09-13T03:24:15.663Z,100380.84
2022-09-13T03:27:03.305Z,100373.84
2022-09-13T03:29:38.831Z,100373.94
2022-09-13T03:32:23.769Z,100359.72
2022-09-13T03:35:15.284Z,100373.25
2022-09-13T03:37:55.505Z,100361.69
2022-09-13T03:40:43.562Z,100359.97
2022-09-13T03:43:14.464Z,100364.47
2022-09-13T03:45:45.584Z,100358.22
2022-09-13T03:48:12.711Z,100360.91
2022-09-13T03:50:39.793Z,100360.03
2022-09-13T03:53:11.560Z,100353.72
2022-09-13T03:55:42.955Z,100350.97
2022-09-13T03:58:15.474Z,100353.72
2022-09-13T04:00:42.346Z,100364.47
2022-09-13T04:03:09.339Z,100356.31
2022-09-13T04:05:36.290Z,100353.66
2022-09-13T04:08:05.694Z,100337.53
2022-09-13T04:10:33.320Z,100338.44
2022-09-13T04:13:02.769Z,100334.88
2022-09-13T04:15:31.195Z,100338.38
2022-09-13T04:17:57.997Z,100350.88
2022-09-13T04:20:25.860Z,100349.06
2022-09-13T04:22:53.865Z,100340.94
2022-09-13T04:25:21.294Z,100338.25
2022-09-13T04:27:49.117Z,100334.63
2022-09-13T04:30:15.833Z,100336.44
2022-09-13T04:32:43.970Z,100345.38
2022-09-13T04:35:11.708Z,100343.53
2022-09-13T04:37:38.949Z,100339.91
2022-09-13T04:40:07.721Z,100338.16
2022-09-13T04:42:34.860Z,100322.06
2022-09-13T04:45:02.406Z,100330.91
2022-09-13T04:47:29.116Z,100343.41
2022-09-13T04:49:55.829Z,100333.59
2022-09-13T04:52:22.546Z,100341.59
2022-09-13T04:54:49.697Z,100345.16
2022-09-13T04:57:16.820Z,100352.28
2022-09-13T04:59:43.622Z,100346.03
2022-09-13T05:02:10.624Z,100328.13
2022-09-13T05:04:37.375Z,100337.03
2022-09-13T05:07:04.705Z,100347.72
2022-09-13T05:09:31.454Z,100343.28
2022-09-13T05:11:58.144Z,100349.50
2022-09-13T05:14:24.835Z,100345.91
2022-09-13T05:16:51.527Z,100345.91
2022-09-13T05:19:18.253Z,100347.66
2022-09-13T05:21:45.009Z,100353.81
2022-09-13T05:24:11.854Z,100360.06
2022-09-13T05:26:38.556Z,100354.69
2022-09-13T05:29:05.361Z,100355.53
2022-09-13T05:31:35.271Z,100351.91
2022-09-13T05:34:05.980Z,100349.16
2022-09-13T05:36:33.395Z,100347.28
2022-09-13T05:39:29.074Z,100349.00
2022-09-13T05:41:47.647Z,100348.09
2022-09-13T05:44:14.405Z,100357.88
2022-09-13T05:46:42.273Z,100351.59
2022-09-13T05:49:08.993Z,100348.91
2022-09-13T05:51:36.309Z,100346.28
2022-09-13T05:54:03.019Z,100333.72
2022-09-13T05:56:30.327Z,100331.91
2022-09-13T05:58:57.049Z,100333.69
2022-09-13T06:01:26.646Z,100339.03
2022-09-13T06:03:55.251Z,100347.88
2022-09-13T06:06:23.236Z,100338.91
2022-09-13T06:08:54.598Z,100337.16
2022-09-13T06:11:21.750Z,100348.78
2022-09-13T06:13:48.818Z,100339.84
2022-09-13T06:16:16.844Z,100338.91
2022-09-13T06:18:43.998Z,100337.97
2022-09-13T06:21:18.715Z,100336.16
2022-09-13T06:23:49.585Z,100326.31
2022-09-13T06:26:17.196Z,100325.34
2022-09-13T06:28:48.213Z,100327.03
2022-09-13T06:31:16.137Z,100326.97
2022-09-13T06:33:43.480Z,100330.41
2022-09-13T06:36:18.054Z,100321.34
2022-09-13T06:38:51.134Z,100322.16
2022-09-13T06:41:20.250Z,100315.72
2022-09-13T06:43:50.201Z,100320.03
2022-09-13T06:46:23.899Z,100313.63
2022-09-13T06:48:52.526Z,100309.88
2022-09-13T06:51:21.246Z,100309.69
2022-09-13T06:53:49.046Z,100319.25
2022-09-13T06:56:20.768Z,100318.94
2022-09-13T06:58:49.777Z,100315.19
2022-09-13T07:01:18.966Z,100319.50
2022-09-13T07:03:49.893Z,100316.72
2022-09-13T07:06:22.381Z,100321.06
2022-09-13T07:08:51.200Z,100314.69
2022-09-13T07:11:19.991Z,100320.81
2022-09-13T07:13:55.054Z,100334.03
2022-09-13T07:16:24.773Z,100328.53
2022-09-13T07:18:54.893Z,100321.19
2022-09-13T07:21:22.441Z,100333.63
2022-09-13T07:23:49.572Z,100341.56
2022-09-13T07:26:16.394Z,100340.63
2022-09-13T07:28:48.419Z,100341.34
2022-09-13T07:31:17.545Z,100345.78
2022-09-13T07:33:45.123Z,100354.66
2022-09-13T07:36:12.778Z,100354.56
2022-09-13T07:38:41.418Z,100360.88
2022-09-13T07:41:12.078Z,100363.72
2022-09-13T07:43:39.249Z,100362.31
2022-09-13T07:46:08.075Z,100368.03
2022-09-13T07:48:36.827Z,100367.38
2022-09-13T07:51:05.363Z,100370.31
2022-09-13T07:53:33.319Z,100370.47
2022-09-13T07:56:05.406Z,100374.91
2022-09-13T07:58:36.512Z,100368.69
2022-09-13T08:01:24.568Z,100374.94
2022-09-13T08:04:05.905Z,100379.44
2022-09-13T08:06:33.904Z,100370.47
2022-09-13T08:09:01.083Z,100384.81
2022-09-13T08:11:30.603Z,100386.63
2022-09-13T08:13:57.479Z,100383.03
2022-09-13T08:16:25.113Z,100380.44
2022-09-13T08:18:57.388Z,100382.44
2022-09-13T08:21:24.933Z,100390.56
2022-09-13T08:23:56.586Z,100394.19
2022-09-13T08:26:23.694Z,100381.75
2022-09-13T08:28:55.868Z,100388.06
2022-09-13T08:31:23.191Z,100390.81
2022-09-13T08:33:50.200Z,100389.09
2022-09-13T08:36:18.132Z,100401.69
2022-09-13T08:38:46.704Z,100398.22
2022-09-13T08:41:23.687Z,100397.16
2022-09-13T08:43:57.290Z,100398.88
2022-09-13T08:46:29.837Z,100403.31
2022-09-13T08:49:07.547Z,100395.13
2022-09-13T08:51:49.038Z,100378.94
2022-09-13T08:54:16.955Z,100383.19
2022-09-13T08:57:08.565Z,100383.03
2022-09-13T08:59:38.486Z,100386.44
2022-09-13T09:02:14.211Z,100385.34
2022-09-13T09:04:48.441Z,100385.16
2022-09-13T09:07:17.771Z,100380.53
2022-09-13T09:09:48.485Z,100376.78
2022-09-13T09:12:16.886Z,100369.50
2022-09-13T09:14:46.620Z,100380.94
2022-09-13T09:17:25.640Z,100386.94
2022-09-13T09:20:22.203Z,100387.88
2022-09-13T09:22:49.827Z,100392.50
2022-09-13T09:25:16.585Z,100391.69
2022-09-13T09:27:43.411Z,100383.63
2022-09-13T09:30:14.364Z,100383.56
2022-09-13T09:32:51.553Z,100378.00
2022-09-13T09:35:36.797Z,100379.31
2022-09-13T09:38:28.799Z,100377.81
2022-09-13T09:40:55.512Z,100374.41
2022-09-13T09:43:29.789Z,100381.00
2022-09-13T09:45:57.429Z,100376.22
2022-09-13T09:48:29.740Z,100363.56
2022-09-13T09:50:58.618Z,100370.47
2022-09-13T09:53:37.019Z,100371.25
2022-09-13T09:56:24.330Z,100373.59
2022-09-13T09:58:53.039Z,100361.66
2022-09-13T10:01:32.282Z,100373.00
2022-09-13T10:04:16.974Z,100369.06
2022-09-13T10:06:43.810Z,100362.13
2022-09-13T10:09:13.427Z,100365.34
2022-09-13T10:11:54.274Z,100360.91
2022-09-13T10:14:30.671Z,100367.28
2022-09-13T10:17:18.243Z,100374.75
2022-09-13T10:20:02.174Z,100371.41
2022-09-13T10:22:31.032Z,100369.66
2022-09-13T10:25:14.178Z,100363.16
2022-09-13T10:27:50.323Z,100361.34
2022-09-13T10:30:32.123Z,100363.97
2022-09-13T10:32:59.003Z,100355.03
2022-09-13T10:35:25.815Z,100364.75
2022-09-13T10:37:52.575Z,100363.66
2022-09-13T10:40:38.487Z,100363.66
2022-09-13T10:43:07.937Z,100367.28
2022-09-13T10:45:34.693Z,100362.00
2022-09-13T10:48:16.792Z,100366.50
2022-09-13T10:51:04.449Z,100363.97
2022-09-13T10:53:42.801Z,100366.97
2022-09-13T10:56:27.608Z,100374.38
2022-09-13T10:59:24.708Z,100373.66
2022-09-13T11:02:09.798Z,100378.34
2022-09-13T11:04:51.198Z,100374.81
2022-09-13T11:07:31.597Z,100370.38
2022-09-13T11:10:26.919Z,100369.38
2022-09-13T11:13:06.138Z,100372.28
2022-09-13T11:15:51.079Z,100368.72
2022-09-13T11:18:30.557Z,100365.00
2022-09-13T11:21:18.426Z,100370.09
2022-09-13T11:24:00.981Z,100364.31
2022-09-13T11:26:42.213Z,100361.28
2022-09-13T11:29:31.701Z,100359.94
2022-09-13T11:32:07.253Z,100355.34
2022-09-13T11:35:00.818Z,100349.00
2022-09-13T11:37:51.848Z,100362.28
2022-09-13T11:40:18.521Z,100356.84
2022-09-13T11:43:08.599Z,100358.56
2022-09-13T11:45:47.208Z,100350.56
2022-09-13T11:48:26.456Z,100357.81
2022-09-13T11:51:12.218Z,100356.06
2022-09-13T11:53:50.165Z,100363.34
2022-09-13T11:56:26.183Z,100361.53
2022-09-13T11:59:01.025Z,100358.97
2022-09-13T12:01:32.207Z,100361.91
2022-09-13T12:04:02.565Z,100369.19
2022-09-13T12:06:36.659Z,100371.19
2022-09-13T12:09:12.834Z,100369.50
2022-09-13T12:11:44.065Z,100369.50
2022-09-13T12:14:17.188Z,100360.53
2022-09-13T12:16:48.488Z,100361.34
2022-09-13T12:19:32.583Z,100356.69
2022-09-13T12:22:00.802Z,100356.38
2022-09-13T12:25:07.423Z,100352.41
2022-09-13T12:27:40.478Z,100337.88
2022-09-13T12:30:19.067Z,100342.81
2022-09-13T12:32:47.867Z,100347.91
2022-09-13T12:35:39.439Z,100344.97
2022-09-13T12:38:16.091Z,100347.19
2022-09-13T12:41:11.140Z,100347.50
2022-09-13T12:43:56.821Z,100343.59
2022-09-13T12:46:45.841Z,100338.84
2022-09-13T12:49:12.498Z,100333.22
2022-09-13T12:52:01.089Z,100339.78
2022-09-13T12:54:43.446Z,100337.75
2022-09-13T12:57:34.855Z,100333.38
2022-09-13T13:00:11.982Z,100331.78
2022-09-13T13:02:54.757Z,100334.63
2022-09-13T13:05:42.035Z,100329.34
2022-09-13T13:08:25.452Z,100326.00
2022-09-13T13:11:07.102Z,100327.91
2022-09-13T13:13:37.091Z,100336.97
2022-09-13T13:16:20.204Z,100332.34
2022-09-13T13:18:48.921Z,100334.03
2022-09-13T13:21:39.290Z,100323.13
2022-09-13T13:24:15.341Z,100318.38
2022-09-13T13:26:48.417Z,100319.94
2022-09-13T13:29:16.847Z,100308.00
2022-09-13T13:32:04.030Z,100320.06
2022-09-13T13:34:40.295Z,100307.72
2022-09-13T13:37:10.000Z,100308.16
2022-09-13T13:39:39.809Z,100313.13
2022-09-13T13:42:26.185Z,100314.00
2022-09-13T13:44:52.820Z,100314.88
2022-09-13T13:47:19.455Z,100313.13
2022-09-13T13:50:00.065Z,100302.59
2022-09-13T13:52:26.721Z,100301.81
2022-09-13T13:55:25.236Z,100310.59
2022-09-13T13:58:04.212Z,100302.06
2022-09-13T14:00:31.824Z,100298.34
2022-09-13T14:03:01.482Z,100305.63
2022-09-13T14:05:46.862Z,100299.38
2022-09-13T14:08:33.678Z,100293.97
2022-09-13T14:11:15.095Z,100290.31
2022-09-13T14:13:58.471Z,100301.91
2022-09-13T14:16:49.095Z,100287.38
2022-09-13T14:19:25.846Z,100290.75
2022-09-13T14:22:14.559Z,100289.66
2022-09-13T14:24:49.673Z,100289.28
2022-09-13T14:27:43.935Z,100289.75
2022-09-13T14:30:28.877Z,100277.47
2022-09-13T14:32:57.340Z,100283.22
2022-09-13T14:35:39.276Z,100283.56
2022-09-13T14:38:23.135Z,100285.72
2022-09-13T14:40:53.998Z,100278.28
2022-09-13T14:43:22.996Z,100282.47
2022-09-13T14:46:04.554Z,100276.88
2022-09-13T14:48:41.702Z,100274.25
2022-09-13T14:51:27.501Z,100280.53
2022-09-13T14:53:58.877Z,100275.03
2022-09-13T14:56:40.762Z,100278.50
2022-09-13T14:59:18.731Z,100279.97
2022-09-13T15:01:45.507Z,100266.19
2022-09-13T15:04:12.257Z,100273.88
2022-09-13T15:06:42.253Z,100266.56
2022-09-13T15:09:12.016Z,100270.22
2022-09-13T15:11:53.950Z,100265.75
2022-09-13T15:14:25.396Z,100266.56
2022-09-13T15:17:12.362Z,100273.69
2022-09-13T15:20:03.374Z,100268.28
2022-09-13T15:22:33.194Z,100271.97
2022-09-13T15:25:01.553Z,100270.22
2022-09-13T15:27:30.716Z,100274.75
2022-09-13T15:30:00.008Z,100279.09
2022-09-13T15:32:41.481Z,100275.63
2022-09-13T15:35:23.557Z,100275.63
2022-09-13T15:38:15.810Z,100271.09
2022-09-13T15:40:48.370Z,100272.81
2022-09-13T15:43:15.101Z,100279.09
2022-09-13T15:45:41.824Z,100271.97
2022-09-13T15:48:17.798Z,100273.78
2022-09-13T15:50:50.012Z,100274.81
2022-09-13T15:53:16.781Z,100281.38
2022-09-13T15:55:43.555Z,100279.81
2022-09-13T15:58:10.671Z,100283.63
2022-09-13T16:00:40.857Z,100284.03
2022-09-13T16:03:08.514Z,100286.13
2022-09-13T16:05:36.548Z,100287.34
2022-09-13T16:08:03.293Z,100281.47
2022-09-13T16:10:30.154Z,100284.44
2022-09-13T16:12:56.946Z,100285.66
2022-09-13T16:15:23.724Z,100284.97
2022-09-13T16:17:50.515Z,100278.88
2022-09-13T16:20:17.693Z,100277.28
2022-09-13T16:22:44.644Z,100273.81
2022-09-13T16:25:13.359Z,100280.34
2022-09-13T16:27:41.363Z,100284.00
2022-09-13T16:30:09.853Z,100274.16
2022-09-13T16:32:36.584Z,100278.78
2022-09-13T16:35:03.337Z,100282.44
2022-09-13T16:37:30.104Z,100282.59
2022-09-13T16:39:58.116Z,100282.69
2022-09-13T16:42:25.050Z,100272.81
2022-09-13T16:44:52.031Z,100273.78
2022-09-13T16:47:18.893Z,100273.78
2022-09-13T16:49:46.205Z,100274.66
2022-09-13T16:52:13.048Z,100272.13
2022-09-13T16:54:39.817Z,100279.44
2022-09-13T16:57:07.002Z,100278.75
2022-09-13T16:59:33.780Z,100280.75
2022-09-13T17:02:01.289Z,100270.22
2022-09-13T17:04:28.119Z,100274.06
2022-09-13T17:06:54.843Z,100270.81
2022-09-13T17:09:23.660Z,100289.00
2022-09-13T17:11:50.854Z,100281.16
2022-09-13T17:14:17.846Z,100284.22
2022-09-13T17:16:48.103Z,100280.91
2022-09-13T17:19:17.929Z,100274.03
2022-09-13T17:21:45.239Z,100284.25
2022-09-13T17:24:13.780Z,100275.66
2022-09-13T17:26:41.785Z,100271.41
2022-09-13T17:29:08.694Z,100269.16
2022-09-13T17:31:35.790Z,100275.72
2022-09-13T17:34:02.647Z,100275.19
2022-09-13T17:36:29.487Z,100280.97
2022-09-13T17:38:57.173Z,100289.41
2022-09-13T17:41:25.818Z,100290.59
2022-09-13T17:43:53.793Z,100290.13
2022-09-13T17:46:22.790Z,100294.00
2022-09-13T17:48:51.797Z,100289.03
2022-09-13T17:51:21.633Z,100285.75
2022-09-13T17:53:56.310Z,100292.28
2022-09-13T17:56:30.270Z,100297.13
2022-09-13T17:59:00.742Z,100295.69
2022-09-13T18:01:27.481Z,100295.06
2022-09-13T18:03:55.159Z,100302.50
2022-09-13T18:06:21.900Z,100301.84
2022-09-13T18:08:48.679Z,100307.53
2022-09-13T18:11:22.246Z,100310.38
2022-09-13T18:13:49.658Z,100304.50
2022-09-13T18:16:21.896Z,100306.53
2022-09-13T18:18:50.161Z,100300.50
2022-09-13T18:21:19.093Z,100304.28
2022-09-13T18:23:50.599Z,100305.38
2022-09-13T18:26:22.430Z,100302.03
2022-09-13T18:28:57.872Z,100302.19
2022-09-13T18:31:25.242Z,100304.19
2022-09-13T18:33:57.472Z,100304.31
2022-09-13T18:36:24.673Z,100309.84
2022-09-13T18:38:52.961Z,100310.94
2022-09-13T18:41:22.503Z,100309.34
2022-09-13T18:43:55.990Z,100322.97
2022-09-13T18:46:25.819Z,100319.44
2022-09-13T18:48:54.865Z,100328.59
2022-09-13T18:51:24.912Z,100333.31
2022-09-13T18:53:51.934Z,100338.03
2022-09-13T18:56:20.571Z,100326.50
2022-09-13T18:58:47.613Z,100333.78
2022-09-13T19:01:17.464Z,100339.31
2022-09-13T19:03:49.212Z,100339.38
2022-09-13T19:06:21.716Z,100343.97
2022-09-13T19:08:49.314Z,100346.72
2022-09-13T19:11:42.085Z,100344.13
2022-09-13T19:14:04.063Z,100340.63
2022-09-13T19:16:30.814Z,100347.84
2022-09-13T19:18:57.582Z,100346.13
2022-09-13T19:21:29.884Z,100348.00
2022-09-13T19:23:59.947Z,100359.63
2022-09-13T19:26:29.651Z,100350.69
2022-09-13T19:29:04.891Z,100353.38
2022-09-13T19:31:36.821Z,100354.41
2022-09-13T19:34:06.142Z,100349.97
2022-09-13T19:36:34.748Z,100350.91
2022-09-13T19:39:02.226Z,100359.03
2022-09-13T19:41:29.767Z,100369.78
2022-09-13T19:44:00.035Z,100365.41
2022-09-13T19:46:31.491Z,100368.16
2022-09-13T19:48:59.447Z,100360.25
2022-09-13T19:51:36.268Z,100366.53
2022-09-13T19:54:03.997Z,100361.31
2022-09-13T19:56:32.920Z,100354.34
2022-09-13T19:59:00.620Z,100360.66
2022-09-13T20:01:29.957Z,100352.69
2022-09-13T20:04:01.837Z,100357.19
2022-09-13T20:06:33.405Z,100349.19
2022-09-13T20:09:00.960Z,100351.09
2022-09-13T20:11:28.954Z,100344.81
2022-09-13T20:13:59.001Z,100345.81
2022-09-13T20:16:28.905Z,100342.34
2022-09-13T20:19:00.107Z,100344.22
2022-09-13T20:21:28.839Z,100345.28
2022-09-13T20:23:58.916Z,100339.13
2022-09-13T20:26:26.257Z,100343.72
2022-09-13T20:28:58.114Z,100345.63
2022-09-13T20:31:24.954Z,100343.13
2022-09-13T20:33:56.134Z,100351.31
2022-09-13T20:36:23.420Z,100348.75
2022-09-13T20:38:53.365Z,100348.88
2022-09-13T20:41:20.693Z,100349.91
2022-09-13T20:43:50.686Z,100348.25
2022-09-13T20:46:18.600Z,100342.13
2022-09-13T20:48:45.402Z,100342.28
2022-09-13T20:51:14.298Z,100333.53
2022-09-13T20:53:41.117Z,100333.69
2022-09-13T20:56:10.772Z,100332.91
2022-09-13T20:58:37.560Z,100346.53
2022-09-13T21:01:07.824Z,100343.97
2022-09-13T21:03:38.745Z,100345.91
2022-09-13T21:06:06.475Z,100346.03
2022-09-13T21:08:42.768Z,100339.91
2022-09-13T21:11:18.550Z,100340.94
2022-09-13T21:13:51.881Z,100336.63
2022-09-13T21:16:21.500Z,100346.59
2022-09-13T21:18:48.541Z,100350.34
2022-09-13T21:21:17.731Z,100348.59
2022-09-13T21:23:44.862Z,100344.28
2022-09-13T21:26:14.184Z,100346.22
2022-09-13T21:28:43.071Z,100356.19
2022-09-13T21:31:22.568Z,100357.19
2022-09-13T21:33:54.176Z,100357.31
2022-09-13T21:36:20.869Z,100349.44
2022-09-13T21:38:47.580Z,100350.44
2022-09-13T21:41:16.749Z,100347.84
2022-09-13T21:43:44.228Z,100351.53
2022-09-13T21:46:16.848Z,100352.53
2022-09-13T21:48:48.803Z,100344.59
2022-09-13T21:51:22.080Z,100349.13
2022-09-13T21:53:52.133Z,100342.97
2022-09-13T21:56:23.138Z,100358.22
2022-09-13T21:58:52.307Z,100354.84
2022-09-13T22:01:22.474Z,100344.25
2022-09-13T22:03:51.182Z,100344.38
2022-09-13T22:06:19.681Z,100340.84
2022-09-13T22:08:54.473Z,100341.03
2022-09-13T22:11:27.206Z,100350.06
2022-09-13T22:13:54.387Z,100343.06
2022-09-13T22:16:23.470Z,100335.97
2022-09-13T22:18:52.527Z,100331.59
2022-09-13T22:21:21.501Z,100341.50
2022-09-13T22:23:48.259Z,100341.50
2022-09-13T22:26:17.755Z,100342.50
2022-09-13T22:28:44.473Z,100345.31
2022-09-13T22:31:13.418Z,100345.38
2022-09-13T22:33:40.209Z,100341.03
2022-09-13T22:36:09.357Z,100338.47
2022-09-13T22:38:37.321Z,100344.81
2022-09-13T22:41:12.814Z,100344.84
2022-09-13T22:43:39.911Z,100347.66
2022-09-13T22:46:09.419Z,100340.66
2022-09-13T22:48:36.649Z,100338.91
2022-09-13T22:51:04.145Z,100334.53
2022-09-13T22:53:32.264Z,100339.13
2022-09-13T22:56:07.526Z,100338.28
2022-09-13T22:58:34.634Z,100341.97
2022-09-13T23:01:05.595Z,100345.63
2022-09-13T23:03:33.894Z,100338.56
2022-09-13T23:06:00.703Z,100334.19
2022-09-13T23:08:27.494Z,100328.03
2022-09-13T23:10:54.246Z,100324.50
2022-09-13T23:13:21.007Z,100329.94
2022-09-13T23:15:47.970Z,100329.09
2022-09-13T23:18:14.702Z,100330.03
2022-09-13T23:20:42.725Z,100328.28
2022-09-13T23:23:10.850Z,100325.66
2022-09-13T23:25:37.573Z,100318.56
2022-09-13T23:28:04.304Z,100317.75
2022-09-13T23:30:31.009Z,100316.91
2022-09-13T23:32:57.692Z,100318.75
2022-09-13T23:35:24.443Z,100311.72
2022-09-13T23:37:51.209Z,100309.97
2022-09-13T23:40:17.960Z,100310.94
2022-09-13T23:42:44.670Z,100298.50
2022-09-13T23:45:12.103Z,100300.28
2022-09-13T23:47:38.894Z,100295.84
2022-09-13T23:50:06.019Z,100292.41
2022-09-13T23:52:32.877Z,100292.41
2022-09-13T23:55:00.166Z,100291.53
2022-09-13T23:57:26.884Z,100290.66
2022-09-13T23:59:53.600Z,100283.59
